Hilltop, North Carolina
Current Conditions -  °F | °C
As of 7:54 PM on Sunday 23 Nov 2014 (Local Time) from KGSO Reporting Station
Heavy Rain Heavy Rain  
Wind Chill: 55°   Ceiling: 400
Heat Index: 55°   Visibility: 3mi
Dew Point: 54°   Wind: 10mph
Humidity: 96%   Direction: 120°ESE
Pressure: 29.83"   Gusts: NA
Location:  36.011°N, 79.8751°W
Report Text: KGSO 240054Z 12009KT 3SM +RA BR BKN004 OVC014 13/12 A2983 RMK AO2 SLP099 P0019 T01280122
Loading
Personal Weather Stations






























Interactive Weather Map New forecast layout! Learn more

10-Day Weather Forecast

Advertisements
Track Severe Weather on mobile